Time;durP1;ratioP1;P1;durP2;ratioP2;P2;SDS_P1;SDS_P2;PMS_P1;PMS_P2;Temp;Humidity;BMP_temperature;BMP_pressure;BME280_temperature;BME280_humidity;BME280_pressure;Samples;Min_cycle;Max_cycle;Signal;HPM_P1;HPM_P2
2021/03/29 06:14:29;;;;;;;6.08;4.17;;;;;;;10.09;56.76;102290.43;1715396;83;21130;-51
2021/03/29 06:20:33;;;;;;;3.60;3.30;;;;;;;10.15;57.12;102294.39;1718558;81;21193;-51
2021/03/29 06:23:02;;;;;;;4.10;3.45;;;;;;;10.20;56.89;102295.30;1650957;83;21303;-50
2021/03/29 06:25:30;;;;;;;3.25;2.95;;;;;;;10.22;56.89;102290.97;1694040;82;21158;-50
2021/03/29 06:27:58;;;;;;;3.42;2.80;;;;;;;10.23;56.89;102297.89;1716333;83;21134;-50
2021/03/29 06:30:31;;;;;;;3.17;2.92;;;;;;;10.24;56.71;102304.39;1716417;83;21315;-48
2021/03/29 06:33:15;;;;;;;3.08;2.80;;;;;;;10.27;56.62;102290.53;1711086;83;21629;-48
2021/03/29 06:35:54;;;;;;;2.12;1.90;;;;;;;10.22;57.12;102285.77;1717663;83;21153;-48
2021/03/29 06:38:33;;;;;;;2.02;1.75;;;;;;;10.21;56.70;102295.29;1722849;81;21589;-48
2021/03/29 06:41:03;;;;;;;2.45;2.22;;;;;;;10.19;56.85;102296.14;1716555;83;21562;-48
2021/03/29 06:43:40;;;;;;;2.67;2.47;;;;;;;10.08;56.97;102295.17;1712450;83;21205;-48
2021/03/29 06:46:21;;;;;;;2.30;1.80;;;;;;;9.99;57.60;102300.36;1716403;82;21157;-48
2021/03/29 06:48:51;;;;;;;2.35;2.15;;;;;;;9.96;57.88;102310.72;1719139;83;21200;-48
2021/03/29 06:51:29;;;;;;;2.45;2.17;;;;;;;9.92;57.82;102293.37;1719545;83;21703;-48
2021/03/29 06:54:04;;;;;;;1.82;1.62;;;;;;;9.92;58.10;102293.37;1706828;83;21589;-47
2021/03/29 06:56:37;;;;;;;1.98;1.87;;;;;;;9.94;58.16;102300.32;1719030;83;21194;-47
2021/03/29 06:59:09;;;;;;;1.80;1.70;;;;;;;9.97;58.11;102302.08;1719551;83;21134;-48
2021/03/29 07:01:52;;;;;;;3.10;2.33;;;;;;;9.97;58.21;102294.27;1715902;83;21152;-48
2021/03/29 07:04:25;;;;;;;1.98;1.72;;;;;;;9.96;58.29;102299.02;1715741;83;21339;-48
2021/03/29 07:06:53;;;;;;;2.17;2.08;;;;;;;9.97;58.37;102294.27;1677641;83;21194;-48
2021/03/29 07:09:21;;;;;;;2.40;2.20;;;;;;;9.99;58.42;102293.85;1686433;83;21786;-48
2021/03/29 07:11:50;;;;;;;2.30;2.10;;;;;;;10.02;58.35;102295.15;1684086;84;21153;-49
2021/03/29 07:14:21;;;;;;;2.62;2.42;;;;;;;9.96;58.27;102291.22;1679033;84;21250;-48
2021/03/29 07:16:50;;;;;;;2.60;2.20;;;;;;;9.97;58.32;102294.27;1689867;83;21200;-49
2021/03/29 07:19:18;;;;;;;2.47;2.27;;;;;;;9.92;58.54;102293.37;1629704;84;21200;-49
2021/03/29 07:21:48;;;;;;;3.35;2.20;;;;;;;9.89;58.76;102290.77;1685923;84;21222;-49
2021/03/29 07:24:16;;;;;;;2.47;2.00;;;;;;;9.85;58.76;102303.73;1682918;84;21195;-49
2021/03/29 07:26:51;;;;;;;3.30;2.15;;;;;;;9.79;58.82;102292.42;1685300;83;21629;-49
2021/03/29 07:29:25;;;;;;;2.70;2.50;;;;;;;9.75;59.17;102293.27;1680520;84;21483;-49
2021/03/29 07:31:55;;;;;;;2.45;2.25;;;;;;;9.64;59.25;102293.20;1682274;84;21734;-49
2021/03/29 07:34:49;;;;;;;2.92;2.35;;;;;;;9.59;59.49;102287.12;1692734;83;21141;-48
2021/03/29 07:37:37;;;;;;;3.25;2.90;;;;;;;9.56;59.96;102283.64;1678113;84;21161;-49
2021/03/29 07:40:18;;;;;;;3.25;2.60;;;;;;;9.52;60.30;102285.33;1681544;84;21230;-49
2021/03/29 07:42:51;;;;;;;3.25;2.95;;;;;;;9.53;60.58;102297.48;1684872;84;21635;-49
2021/03/29 07:45:38;;;;;;;2.83;2.52;;;;;;;9.54;60.65;102288.80;1674425;84;21184;-49
2021/03/29 07:48:06;;;;;;;3.17;2.80;;;;;;;9.51;61.03;102308.29;1692439;83;21165;-49
2021/03/29 07:50:40;;;;;;;2.98;2.77;;;;;;;9.42;61.50;102296.94;1679170;83;21170;-49
2021/03/29 07:55:54;;;;;;;4.15;3.60;;;;;;;9.43;61.87;102295.67;1771545;79;22788;-49
2021/03/29 07:58:22;;;;;;;4.97;4.15;;;;;;;9.40;62.24;102302.13;1737384;82;21148;-50
2021/03/29 08:01:03;;;;;;;6.30;4.53;;;;;;;9.37;62.40;102308.62;1736883;82;21290;-49
2021/03/29 08:03:36;;;;;;;4.72;4.33;;;;;;;9.35;62.54;102303.84;1739601;82;21145;-49
2021/03/29 08:06:07;;;;;;;5.08;3.87;;;;;;;9.35;62.62;102307.73;1737422;82;21148;-50
2021/03/29 08:08:38;;;;;;;4.87;3.72;;;;;;;9.44;62.64;102306.48;1734967;82;21140;-50
2021/03/29 08:11:17;;;;;;;5.08;4.62;;;;;;;9.46;63.09;102313.87;1739797;82;21200;-49
2021/03/29 08:16:29;;;;;;;6.03;4.83;;;;;;;9.51;63.29;102301.80;1808334;79;22949;-49
2021/03/29 08:19:17;;;;;;;6.10;4.58;;;;;;;9.50;63.28;102314.78;1779364;80;21140;-49
2021/03/29 08:22:01;;;;;;;6.15;4.05;;;;;;;9.53;63.40;102306.57;1782147;80;21156;-49
2021/03/29 08:24:33;;;;;;;5.37;3.83;;;;;;;9.60;63.13;102314.83;1780459;80;21533;-49
2021/03/29 08:27:07;;;;;;;5.28;4.67;;;;;;;9.66;63.09;102308.83;1779977;80;21183;-50
2021/03/29 08:29:36;;;;;;;9.50;5.55;;;;;;;9.69;63.14;102301.91;1778583;80;21120;-50
2021/03/29 08:32:17;;;;;;;5.72;4.50;;;;;;;9.74;63.27;102305.84;1776244;80;21160;-50
2021/03/29 08:35:11;;;;;;;7.75;4.83;;;;;;;9.77;63.42;102305.42;1779937;80;21192;-49
2021/03/29 08:37:48;;;;;;;5.30;4.80;;;;;;;9.89;62.78;102310.27;1766240;80;21152;-50
2021/03/29 08:40:26;;;;;;;6.87;5.35;;;;;;;9.93;62.80;102310.72;1772304;80;21218;-50
2021/03/29 08:43:08;;;;;;;5.85;5.28;;;;;;;9.98;62.84;102305.98;1780324;80;21587;-49
2021/03/29 08:45:37;;;;;;;5.08;4.58;;;;;;;10.07;62.44;102304.73;1778596;80;21599;-49
2021/03/29 08:48:06;;;;;;;6.22;5.42;;;;;;;10.15;61.86;102319.98;1776671;80;21152;-49
2021/03/29 08:50:38;;;;;;;5.70;5.17;;;;;;;10.20;61.51;102330.41;1779210;80;21699;-50
2021/03/29 08:53:10;;;;;;;5.62;5.12;;;;;;;10.20;61.36;102317.41;1776762;80;21128;-49
2021/03/29 08:55:40;;;;;;;;;;;;;;;10.22;61.86;102327.39;1743061;81;21146;-49
2021/03/29 08:58:09;;;;;;;5.60;5.08;;;;;;;10.29;61.83;102321.33;1740339;82;20152;-49
2021/03/29 09:00:42;;;;;;;5.45;4.95;;;;;;;10.36;61.65;102317.48;1744755;82;21156;-49
2021/03/29 09:03:23;;;;;;;4.97;4.47;;;;;;;10.45;61.25;102323.12;1739497;82;21703;-49
2021/03/29 09:05:51;;;;;;;6.27;4.63;;;;;;;10.53;61.02;102320.14;1738310;82;21281;-49
2021/03/29 09:08:19;;;;;;;5.35;4.45;;;;;;;10.62;60.78;102324.05;1741332;82;21333;-49
2021/03/29 09:10:48;;;;;;;6.03;4.65;;;;;;;10.69;60.42;102331.03;1740601;82;21615;-49
2021/03/29 09:13:16;;;;;;;5.53;5.03;;;;;;;10.70;60.62;102326.25;1741707;82;21163;-49
2021/03/29 09:15:52;;;;;;;6.15;5.55;;;;;;;10.89;59.93;102337.15;1766403;79;22977;-51
2021/03/29 09:18:24;;;;;;;6.95;5.92;;;;;;;10.90;59.62;102324.55;1753195;82;21148;-50
2021/03/29 09:20:53;;;;;;;5.72;5.17;;;;;;;10.91;59.31;102332.81;1750388;82;21581;-50
2021/03/29 09:23:28;;;;;;;7.33;5.85;;;;;;;10.86;59.34;102331.08;1753646;82;21562;-49
2021/03/29 09:25:53;;;;;;;6.53;5.85;;;;;;;10.80;59.37;102331.91;1749582;82;21156;-50
2021/03/29 09:31:21;;;;;;;6.40;5.80;;;;;;;10.72;59.68;102334.93;1749237;82;21149;-49
2021/03/29 09:33:51;;;;;;;7.58;6.75;;;;;;;10.69;59.63;102334.94;1740017;82;21160;-49
2021/03/29 09:36:22;;;;;;;7.00;6.30;;;;;;;10.67;59.98;102336.67;1753534;82;21144;-49
2021/03/29 09:38:58;;;;;;;;;;;;;;;10.66;59.95;102338.82;1756096;82;21173;-48
2021/03/29 09:41:30;;;;;;;8.70;7.58;;;;;;;10.64;60.19;102338.83;1753340;82;20146;-49
2021/03/29 09:43:58;;;;;;;7.47;6.70;;;;;;;10.64;60.24;102341.42;1753572;82;21188;-49
2021/03/29 09:46:27;;;;;;;7.70;6.78;;;;;;;10.63;60.43;102334.47;1753629;81;21164;-50
2021/03/29 09:49:16;;;;;;;8.10;7.20;;;;;;;10.67;60.39;102342.30;1750380;82;21295;-51
2021/03/29 09:51:47;;;;;;;7.62;6.83;;;;;;;10.67;60.64;102343.17;1751634;82;21169;-50
2021/03/29 09:54:32;;;;;;;8.03;7.22;;;;;;;10.69;60.91;102347.95;1753856;81;21149;-49
2021/03/29 09:57:18;;;;;;;8.53;7.62;;;;;;;10.68;61.04;102348.80;1750766;82;21147;-50
2021/03/29 09:59:46;;;;;;;7.08;6.37;;;;;;;10.67;61.31;102353.59;1753403;82;21168;-49
2021/03/29 10:02:25;;;;;;;5.20;4.70;;;;;;;10.69;61.56;102354.89;1753733;82;21612;-48
2021/03/29 10:05:02;;;;;;;2.77;2.50;;;;;;;10.69;61.52;102360.97;1708690;84;21256;-50
2021/03/29 10:07:30;;;;;;;2.58;2.20;;;;;;;10.66;60.98;102362.25;1708690;84;21198;-49
2021/03/29 10:10:08;;;;;;;2.17;1.98;;;;;;;10.61;59.85;102370.48;1708620;84;21329;-49
2021/03/29 10:12:37;;;;;;;2.37;2.15;;;;;;;10.57;59.68;102368.73;1708628;84;21175;-49
2021/03/29 10:15:09;;;;;;;2.42;2.00;;;;;;;10.52;59.65;102362.63;1710662;83;21165;-50
2021/03/29 10:17:37;;;;;;;2.08;1.67;;;;;;;10.52;59.60;102373.05;1721792;83;21267;-50
2021/03/29 10:20:08;;;;;;;1.95;1.75;;;;;;;10.49;59.59;102366.09;1721577;83;21167;-49
2021/03/29 10:22:36;;;;;;;1.35;1.22;;;;;;;10.51;59.72;102369.98;1722021;83;21177;-50
2021/03/29 10:27:55;;;;;;;1.80;1.70;;;;;;;10.57;59.71;102366.98;1758686;79;23073;-49
2021/03/29 10:30:29;;;;;;;2.35;2.10;;;;;;;10.54;60.00;102372.62;1738377;82;21145;-49
2021/03/29 10:32:59;;;;;;;1.77;1.67;;;;;;;10.53;60.03;102376.95;1728544;82;21176;-48
2021/03/29 10:35:29;;;;;;;2.10;1.87;;;;;;;10.59;60.18;102377.42;1736967;82;21163;-48
2021/03/29 10:37:57;;;;;;;2.58;2.37;;;;;;;10.67;60.22;102382.23;1728493;82;21137;-48
2021/03/29 10:40:27;;;;;;;2.55;2.20;;;;;;;10.71;60.44;102380.07;1741393;82;21188;-48
2021/03/29 10:42:56;;;;;;;4.10;1.57;;;;;;;10.75;60.47;102375.31;1740417;82;21172;-48
2021/03/29 10:45:24;;;;;;;1.20;1.10;;;;;;;10.77;60.45;102380.09;1738513;82;21116;-48
2021/03/29 10:47:53;;;;;;;2.75;1.40;;;;;;;10.76;60.01;102378.33;1737253;82;21556;-49
2021/03/29 10:50:22;;;;;;;2.12;1.60;;;;;;;10.76;60.39;102387.45;1740330;81;21140;-48
2021/03/29 10:52:50;;;;;;;1.87;1.32;;;;;;;10.78;60.39;102377.91;1741346;82;21584;-48
2021/03/29 10:55:20;;;;;;;1.45;1.15;;;;;;;10.83;60.43;102384.02;1741268;82;21153;-49
2021/03/29 10:57:48;;;;;;;1.25;0.70;;;;;;;10.87;60.19;102380.55;1739559;82;21144;-49
2021/03/29 11:00:19;;;;;;;0.80;0.80;;;;;;;10.90;60.09;102388.35;1737797;82;21309;-50
2021/03/29 11:02:46;;;;;;;1.10;1.00;;;;;;;10.97;59.61;102390.13;1728797;82;21348;-50
2021/03/29 11:05:16;;;;;;;0.70;0.70;;;;;;;11.00;59.37;102392.75;1739962;82;21128;-51
2021/03/29 11:07:45;;;;;;;0.85;0.70;;;;;;;11.01;59.58;102391.86;1740152;82;21156;-50
2021/03/29 11:10:15;;;;;;;0.57;0.57;;;;;;;11.04;59.62;102395.80;1740998;82;21172;-50
2021/03/29 11:12:42;;;;;;;0.60;0.60;;;;;;;11.07;58.89;102391.00;1741401;82;21322;-50
2021/03/29 11:15:13;;;;;;;0.40;0.40;;;;;;;11.04;59.10;102397.09;1740331;82;21172;-49
2021/03/29 11:17:43;;;;;;;0.60;0.60;;;;;;;11.08;59.05;102403.17;1738785;82;21629;-49
2021/03/29 11:20:13;;;;;;;0.70;0.60;;;;;;;11.05;58.79;102398.82;1737862;82;21278;-51
2021/03/29 11:22:43;;;;;;;1.65;0.80;;;;;;;11.06;58.56;102397.97;1738184;82;21168;-50
2021/03/29 11:25:13;;;;;;;0.60;0.60;;;;;;;11.04;58.70;102398.83;1738178;82;21176;-49
2021/03/29 11:27:42;;;;;;;1.25;0.70;;;;;;;11.02;58.80;102398.83;1727951;81;21160;-50
2021/03/29 11:30:13;;;;;;;1.15;1.05;;;;;;;11.03;58.95;102407.06;1725887;82;21172;-50
2021/03/29 11:32:43;;;;;;;1.30;1.05;;;;;;;10.97;59.31;102413.98;1726827;82;21318;-48
2021/03/29 11:35:12;;;;;;;1.00;0.88;;;;;;;10.94;59.97;102409.63;1724209;82;21189;-50
2021/03/29 11:37:40;;;;;;;0.95;0.88;;;;;;;10.93;60.91;102410.52;1738037;82;21157;-50
2021/03/29 11:40:11;;;;;;;0.60;0.60;;;;;;;10.87;61.01;102410.50;1725299;82;21205;-49
2021/03/29 11:42:39;;;;;;;1.02;0.78;;;;;;;10.82;60.24;102412.20;1724881;82;21181;-50
2021/03/29 11:45:09;;;;;;;0.82;0.82;;;;;;;10.82;60.13;102397.88;1720465;82;21149;-49
2021/03/29 11:47:39;;;;;;;1.10;1.00;;;;;;;10.81;60.12;102407.88;1724566;82;22391;-48
2021/03/29 11:50:11;;;;;;;0.98;0.88;;;;;;;10.80;60.19;102408.72;1724650;82;21205;-50
2021/03/29 11:52:39;;;;;;;1.40;1.12;;;;;;;10.76;60.42;102410.88;1725186;82;21156;-49
2021/03/29 11:55:09;;;;;;;1.52;1.20;;;;;;;10.71;61.06;102417.82;1721155;82;21185;-51
2021/03/29 11:57:40;;;;;;;1.50;1.17;;;;;;;10.68;61.46;102416.48;1727684;82;21173;-48
2021/03/29 12:00:17;;;;;;;1.77;1.35;;;;;;;10.71;61.82;102416.52;1642752;86;21262;-48
2021/03/29 12:02:48;;;;;;;1.32;1.22;;;;;;;10.76;62.04;102416.09;1638917;87;21652;-48
2021/03/29 12:05:19;;;;;;;1.35;1.25;;;;;;;10.95;61.81;102415.30;1638974;87;21611;-48
2021/03/29 12:08:11;;;;;;;1.72;1.37;;;;;;;10.93;62.13;102418.33;1636048;87;21372;-49
2021/03/29 12:13:20;;;;;;;2.05;1.72;;;;;;;11.05;62.00;102406.64;1642030;87;21179;-48
2021/03/29 12:15:52;;;;;;;1.52;1.37;;;;;;;11.21;61.51;102414.07;1641818;87;21187;-48
2021/03/29 12:18:31;;;;;;;2.20;2.00;;;;;;;11.36;60.95;102405.83;1626895;87;21675;-48
2021/03/29 12:20:50;;;;;;;2.17;1.75;;;;;;;11.38;60.75;102415.83;1634099;87;21179;-48
2021/03/29 12:23:19;;;;;;;2.15;1.90;;;;;;;11.40;60.73;102411.91;1639526;87;21666;-48
2021/03/29 12:25:48;;;;;;;2.58;2.30;;;;;;;11.45;60.65;102408.89;1637215;87;21156;-49
2021/03/29 12:28:16;;;;;;;4.65;3.80;;;;;;;11.40;60.88;102420.60;1633388;87;21651;-48
2021/03/29 12:30:45;;;;;;;3.02;2.75;;;;;;;11.32;61.26;102421.03;1656216;87;21176;-48
2021/03/29 12:33:14;;;;;;;1.67;1.40;;;;;;;11.30;61.31;102416.25;1634573;87;21185;-49
2021/03/29 12:35:43;;;;;;;1.05;0.98;;;;;;;11.32;60.61;102426.24;1634464;87;21228;-48
2021/03/29 12:38:11;;;;;;;1.22;1.12;;;;;;;11.29;60.18;102417.09;1656230;87;21200;-48
2021/03/29 12:43:31;;;;;;;1.50;1.40;;;;;;;11.31;59.60;102421.88;1804371;79;28712;-50
2021/03/29 12:45:52;;;;;;;1.35;1.22;;;;;;;11.32;59.97;102422.33;1772937;80;21132;-49
2021/03/29 12:48:21;;;;;;;1.30;1.20;;;;;;;11.44;59.19;102422.77;1751553;81;21310;-49
2021/03/29 12:50:51;;;;;;;1.07;0.95;;;;;;;11.46;58.81;102427.55;1784250;80;21176;-49
2021/03/29 12:53:25;;;;;;;1.60;1.22;;;;;;;11.48;58.55;102437.55;1745287;81;21166;-49
2021/03/29 12:55:53;;;;;;;0.70;0.70;;;;;;;11.45;58.46;102437.13;1710466;83;21176;-49
2021/03/29 12:58:21;;;;;;;1.00;0.90;;;;;;;11.48;58.54;102429.30;1713283;83;21208;-50
2021/03/29 13:00:50;;;;;;;1.60;1.45;;;;;;;11.53;58.39;102429.31;1719082;83;21178;-49
2021/03/29 13:03:21;;;;;;;1.95;1.27;;;;;;;11.60;57.99;102431.49;1742902;81;21153;-50
2021/03/29 13:05:57;;;;;;;1.75;1.62;;;;;;;11.64;58.21;102431.93;1740407;81;21291;-50
2021/03/29 13:08:25;;;;;;;2.40;2.20;;;;;;;11.63;57.62;102430.17;1740429;81;21165;-49
2021/03/29 13:13:35;;;;;;;2.35;1.40;;;;;;;11.53;56.64;102431.04;1696170;83;21179;-49
2021/03/29 13:16:05;;;;;;;1.60;1.27;;;;;;;11.50;57.11;102440.18;1725339;83;21602;-49
2021/03/29 13:18:33;;;;;;;1.17;1.00;;;;;;;11.46;57.47;102437.55;1716264;83;21200;-51
2021/03/29 13:21:01;;;;;;;2.87;2.17;;;;;;;11.49;57.92;102447.13;1714850;83;21576;-49
2021/03/29 13:23:30;;;;;;;1.95;1.52;;;;;;;11.49;58.14;102434.09;1729168;83;21159;-50
2021/03/29 13:25:58;;;;;;;1.35;1.07;;;;;;;11.48;58.49;102436.23;1720409;83;21156;-49
2021/03/29 13:28:26;;;;;;;1.87;1.50;;;;;;;11.55;58.40;102433.21;1723566;83;21160;-49
2021/03/29 13:30:54;;;;;;;3.52;2.37;;;;;;;11.63;58.31;102436.69;1739685;82;21133;-50
2021/03/29 13:33:23;;;;;;;3.35;1.70;;;;;;;11.76;58.38;102441.09;1756717;81;21133;-49
2021/03/29 13:35:53;;;;;;;1.70;1.50;;;;;;;11.85;58.33;102438.49;1726803;83;21188;-50
2021/03/29 13:38:21;;;;;;;2.27;1.57;;;;;;;11.95;58.02;102437.61;1750246;81;21173;-50
2021/03/29 13:40:51;;;;;;;1.30;1.20;;;;;;;12.06;57.85;102437.14;1726522;83;21167;-49
2021/03/29 13:43:20;;;;;;;1.90;1.17;;;;;;;12.17;57.85;102443.23;1701109;83;21179;-49
2021/03/29 13:45:48;;;;;;;1.30;1.20;;;;;;;12.24;57.49;102441.06;1754096;81;21121;-49
2021/03/29 13:48:16;;;;;;;1.30;1.20;;;;;;;12.28;57.08;102444.09;1771684;81;21141;-50
2021/03/29 13:50:44;;;;;;;1.40;1.25;;;;;;;12.25;56.50;102445.39;1734486;82;21601;-48
2021/03/29 13:53:12;;;;;;;2.45;1.70;;;;;;;12.16;57.33;102466.27;1757527;81;21121;-50
2021/03/29 13:55:41;;;;;;;1.92;1.60;;;;;;;12.07;58.45;102470.21;1752384;81;21189;-50
2021/03/29 13:58:09;;;;;;;1.90;1.80;;;;;;;11.89;57.88;102468.46;1740173;82;21144;-49
2021/03/29 14:00:37;;;;;;;6.25;5.50;;;;;;;11.71;58.42;102471.50;1723082;82;21295;-49
2021/03/29 14:03:05;;;;;;;8.03;6.75;;;;;;;11.56;57.59;102466.25;1726898;82;21221;-49
2021/03/29 14:05:35;;;;;;;3.22;2.92;;;;;;;11.39;57.79;102474.92;1764424;81;21184;-50
2021/03/29 14:08:05;;;;;;;4.65;4.05;;;;;;;11.24;58.04;102470.96;1774713;81;21314;-49
2021/03/29 14:10:36;;;;;;;12.25;7.65;;;;;;;11.11;58.34;102466.56;1733959;82;21114;-49
2021/03/29 14:13:07;;;;;;;5.97;4.85;;;;;;;10.98;58.52;102475.23;1777017;81;21156;-49
2021/03/29 14:15:43;;;;;;;3.45;3.15;;;;;;;10.89;59.04;102479.50;1772653;81;21184;-50
2021/03/29 14:18:07;;;;;;;3.77;2.65;;;;;;;10.82;59.49;102483.81;1765055;80;21153;-49
2021/03/29 14:20:35;;;;;;;3.27;2.67;;;;;;;10.74;59.79;102480.30;1729962;82;21590;-49
2021/03/29 14:23:03;;;;;;;3.33;3.02;;;;;;;10.71;60.26;102484.21;1753542;81;21589;-49
2021/03/29 14:25:32;;;;;;;8.13;6.70;;;;;;;10.69;61.04;102483.75;1766273;81;21172;-49
2021/03/29 14:28:00;;;;;;;19.92;13.80;;;;;;;10.64;61.82;102488.93;1767972;81;21568;-49
2021/03/29 14:30:30;;;;;;;5.50;5.00;;;;;;;10.63;61.91;102495.02;1771306;81;21161;-49
2021/03/29 14:32:59;;;;;;;4.70;4.22;;;;;;;10.61;62.27;102494.14;1778758;81;21180;-49
2021/03/29 14:45:54;;;;;;;3.60;3.30;;;;;;;10.51;62.67;102511.83;1769253;81;21286;-49
2021/03/29 14:48:22;;;;;;;3.40;3.10;;;;;;;10.49;62.66;102512.26;1765105;81;21125;-49
2021/03/29 14:50:51;;;;;;;4.53;3.92;;;;;;;10.46;62.39;102512.25;1730048;82;21174;-50
2021/03/29 14:53:19;;;;;;;4.90;4.15;;;;;;;10.44;62.71;102516.58;1769955;81;21628;-49
2021/03/29 14:55:48;;;;;;;5.28;4.58;;;;;;;10.39;63.09;102521.75;1741284;82;21185;-49
2021/03/29 14:58:15;;;;;;;5.37;3.98;;;;;;;10.39;63.28;102524.77;1727238;82;21149;-49
2021/03/29 15:00:44;;;;;;;3.60;3.30;;;;;;;10.38;63.54;102528.25;1728324;82;21295;-49
2021/03/29 15:03:15;;;;;;;3.72;3.27;;;;;;;10.37;63.59;102536.90;1762697;81;21144;-49
2021/03/29 15:05:49;;;;;;;3.52;3.22;;;;;;;10.36;63.61;102539.08;1768023;81;21635;-50
2021/03/29 15:08:12;;;;;;;3.47;3.17;;;;;;;10.34;63.80;102547.30;1760137;81;21157;-49
2021/03/29 15:10:40;;;;;;;2.75;2.50;;;;;;;10.32;63.87;102546.00;1728911;82;21300;-50
2021/03/29 15:13:08;;;;;;;3.65;2.77;;;;;;;10.30;63.79;102550.32;1765518;80;21755;-50
2021/03/29 15:15:37;;;;;;;5.08;3.85;;;;;;;10.30;63.79;102552.05;1733624;82;21109;-49
2021/03/29 15:18:06;;;;;;;12.33;9.85;;;;;;;10.27;63.99;102545.08;1769611;81;21282;-49
2021/03/29 15:20:34;;;;;;;36.15;21.37;;;;;;;10.26;63.99;102556.33;1774297;81;21140;-48
2021/03/29 15:23:02;;;;;;;8.73;6.95;;;;;;;10.26;63.99;102551.58;1704090;84;21313;-49
2021/03/29 15:25:31;;;;;;;19.45;14.35;;;;;;;10.26;64.13;102547.67;1769701;81;21309;-49
2021/03/29 15:27:59;;;;;;;17.12;11.97;;;;;;;10.26;63.97;102555.48;1709130;84;21342;-50
2021/03/29 15:30:27;;;;;;;8.23;7.42;;;;;;;10.29;63.97;102556.79;1764776;81;21149;-49
2021/03/29 15:32:55;;;;;;;5.50;4.65;;;;;;;10.30;63.91;102565.93;1732109;82;21182;-49
2021/03/29 15:35:23;;;;;;;13.08;9.60;;;;;;;10.31;64.01;102562.45;1768977;81;21629;-49
2021/03/29 15:37:51;;;;;;;30.23;18.67;;;;;;;10.33;64.10;102572.44;1754778;81;21149;-49
2021/03/29 15:40:19;;;;;;;15.70;12.80;;;;;;;10.32;64.03;102572.02;1765925;81;21169;-49
2021/03/29 15:42:47;;;;;;;5.03;4.62;;;;;;;10.35;64.03;102581.55;1713284;83;21227;-49
2021/03/29 15:45:17;;;;;;;3.35;3.05;;;;;;;10.37;64.11;102585.92;1779635;80;21191;-48
2021/03/29 15:47:45;;;;;;;5.70;5.20;;;;;;;10.53;63.77;102592.14;1777897;80;21180;-49
2021/03/29 15:50:15;;;;;;;3.87;3.50;;;;;;;10.54;63.65;102601.25;1779202;80;21584;-49
2021/03/29 15:52:44;;;;;;;3.25;2.92;;;;;;;10.53;63.26;102599.95;1779609;80;21164;-49
2021/03/29 15:55:14;;;;;;;4.90;3.33;;;;;;;10.53;63.54;102605.15;1760574;80;21124;-49
2021/03/29 15:57:45;;;;;;;4.40;4.00;;;;;;;10.51;63.58;102599.03;1781093;80;21144;-49
2021/03/29 16:00:14;;;;;;;8.68;6.35;;;;;;;10.48;63.39;102605.11;1770165;80;21160;-48
2021/03/29 16:05:20;;;;;;;8.48;6.62;;;;;;;10.42;63.23;102605.48;1809148;79;22120;-49
2021/03/29 16:07:47;;;;;;;6.80;6.10;;;;;;;10.20;63.68;102615.27;1774371;80;21162;-49
2021/03/29 16:10:16;;;;;;;7.83;6.83;;;;;;;10.14;63.89;102616.06;1777800;80;21161;-49
2021/03/29 16:12:44;;;;;;;7.17;5.47;;;;;;;10.11;63.73;102613.45;1777912;80;21293;-49
2021/03/29 16:15:15;;;;;;;5.75;4.70;;;;;;;10.09;63.81;102614.25;1783162;80;21152;-49
2021/03/29 16:17:45;;;;;;;5.75;4.58;;;;;;;10.07;63.60;102621.16;1769991;80;21568;-49
2021/03/29 16:20:13;;;;;;;5.58;4.50;;;;;;;10.05;63.68;102620.28;1774294;80;21152;-50
2021/03/29 16:22:41;;;;;;;4.10;3.80;;;;;;;10.03;63.79;102619.39;1790005;80;21175;-49
2021/03/29 16:25:18;;;;;;;4.47;4.00;;;;;;;9.85;64.51;102623.53;1745013;81;21180;-49
2021/03/29 16:27:42;;;;;;;6.75;4.22;;;;;;;9.98;64.27;102625.84;1753245;81;21139;-49
2021/03/29 16:30:11;;;;;;;6.22;5.05;;;;;;;10.01;64.27;102621.10;1755020;81;21165;-49
2021/03/29 16:32:39;;;;;;;6.28;5.65;;;;;;;10.03;64.24;102625.89;1737294;81;21163;-50
2021/03/29 16:35:10;;;;;;;5.25;4.65;;;;;;;10.04;64.09;102618.52;1748739;81;21151;-49
2021/03/29 16:37:37;;;;;;;8.88;6.50;;;;;;;10.04;63.96;102636.72;1746469;81;21142;-49
2021/03/29 16:40:07;;;;;;;5.90;4.70;;;;;;;10.02;63.92;102632.81;1751989;81;21334;-49
2021/03/29 16:42:35;;;;;;;4.60;4.20;;;;;;;10.02;63.92;102633.23;1754497;81;21183;-49
2021/03/29 16:45:05;;;;;;;4.42;3.75;;;;;;;10.02;64.00;102647.12;1750824;81;21111;-49
2021/03/29 16:47:34;;;;;;;4.65;4.22;;;;;;;10.05;64.12;102643.69;1750469;81;21159;-49
2021/03/29 16:50:04;;;;;;;5.00;4.28;;;;;;;10.06;64.19;102649.31;1751774;81;21151;-48
2021/03/29 16:52:32;;;;;;;4.00;3.60;;;;;;;10.07;64.17;102649.77;1741193;81;21726;-48
2021/03/29 16:55:04;;;;;;;5.08;4.30;;;;;;;10.07;64.17;102649.77;1756373;81;21144;-49
2021/03/29 16:57:33;;;;;;;5.30;4.75;;;;;;;10.08;64.04;102653.68;1751938;81;21175;-48
2021/03/29 17:00:03;;;;;;;6.60;5.10;;;;;;;10.10;64.00;102652.42;1744730;81;21195;-49
2021/03/29 17:02:32;;;;;;;6.62;4.90;;;;;;;10.09;63.95;102655.44;1754283;81;21179;-50
2021/03/29 17:05:01;;;;;;;5.65;4.53;;;;;;;10.07;64.00;102656.28;1733618;81;21565;-48
2021/03/29 17:07:28;;;;;;;5.05;4.00;;;;;;;10.07;64.05;102664.08;1728073;83;21566;-49
2021/03/29 17:09:56;;;;;;;4.55;4.15;;;;;;;10.07;64.06;102665.38;1728038;83;21169;-49
2021/03/29 17:12:25;;;;;;;6.17;5.20;;;;;;;10.06;64.01;102659.72;1729320;82;21720;-50
2021/03/29 17:14:53;;;;;;;8.38;6.25;;;;;;;10.02;64.11;102662.72;1771336;81;21581;-49
2021/03/29 17:17:21;;;;;;;6.25;5.25;;;;;;;9.98;64.24;102662.25;1679157;84;21177;-49
2021/03/29 17:19:49;;;;;;;8.95;4.60;;;;;;;9.98;64.27;102657.05;1766698;81;21566;-49
2021/03/29 17:22:17;;;;;;;6.10;4.25;;;;;;;9.99;64.27;102660.53;1766581;81;21156;-49
2021/03/29 17:24:46;;;;;;;6.15;4.80;;;;;;;9.99;64.32;102667.03;1768716;80;21281;-49
2021/03/29 17:27:14;;;;;;;4.78;3.92;;;;;;;10.00;64.33;102662.25;1767822;81;21149;-50
2021/03/29 17:29:42;;;;;;;5.75;4.30;;;;;;;10.01;64.27;102670.52;1767664;81;21340;-50
2021/03/29 17:32:14;;;;;;;4.67;4.17;;;;;;;10.03;64.30;102672.28;1766131;81;21583;-50
2021/03/29 17:34:43;;;;;;;4.17;3.77;;;;;;;10.07;64.22;102674.48;1693999;84;21219;-49
2021/03/29 17:37:11;;;;;;;4.42;4.03;;;;;;;10.08;64.24;102672.31;1693665;85;21216;-51
2021/03/29 17:39:41;;;;;;;4.62;4.22;;;;;;;10.07;64.37;102675.78;1693576;85;21188;-49
2021/03/29 17:42:09;;;;;;;5.05;4.55;;;;;;;10.08;64.45;102682.72;1693653;85;21199;-49
2021/03/29 17:44:38;;;;;;;4.58;4.17;;;;;;;10.10;64.65;102688.84;1693580;84;21303;-49
2021/03/29 17:47:06;;;;;;;4.80;4.35;;;;;;;10.13;64.78;102691.48;1693742;85;21193;-49
2021/03/29 17:49:34;;;;;;;4.50;4.10;;;;;;;10.15;64.78;102693.67;1693593;85;21223;-49
2021/03/29 17:52:03;;;;;;;3.95;3.60;;;;;;;10.19;64.71;102701.95;1693599;85;21211;-49
2021/03/29 17:54:32;;;;;;;4.40;4.00;;;;;;;10.21;64.69;102706.33;1693568;85;21137;-49
2021/03/29 17:57:00;;;;;;;4.80;4.30;;;;;;;10.23;64.72;102714.14;1693891;85;21164;-49
2021/03/29 17:59:29;;;;;;;4.62;4.17;;;;;;;10.23;64.76;102715.02;1693471;84;21247;-49
2021/03/29 18:01:57;;;;;;;4.25;3.55;;;;;;;10.25;64.78;102713.73;1693500;85;21184;-49
2021/03/29 18:04:26;;;;;;;4.62;4.00;;;;;;;10.30;64.81;102725.07;1700945;83;21173;-50
2021/03/29 18:06:54;;;;;;;5.40;4.50;;;;;;;10.28;64.87;102731.53;1711855;84;21313;-49
2021/03/29 18:09:24;;;;;;;5.92;4.70;;;;;;;10.26;65.24;102721.99;1711969;84;21161;-50
2021/03/29 18:11:53;;;;;;;6.62;4.95;;;;;;;10.23;65.45;102724.13;1711842;84;21208;-49
2021/03/29 18:14:21;;;;;;;5.55;4.30;;;;;;;10.22;65.51;102733.23;1712003;84;21601;-49
2021/03/29 18:16:51;;;;;;;7.83;5.05;;;;;;;10.22;65.54;102733.23;1712024;84;21161;-49
2021/03/29 18:19:20;;;;;;;5.35;4.83;;;;;;;10.24;65.55;102734.11;1699560;84;21241;-49
2021/03/29 18:21:49;;;;;;;5.30;4.80;;;;;;;10.24;65.58;102732.36;1711861;84;21164;-49
2021/03/29 18:24:17;;;;;;;5.10;4.55;;;;;;;10.25;65.61;102737.14;1711829;84;21624;-49
2021/03/29 18:26:48;;;;;;;4.03;3.62;;;;;;;10.28;65.64;102741.09;1711775;84;21303;-49
2021/03/29 18:29:17;;;;;;;3.70;3.00;;;;;;;10.31;65.78;102737.20;1711995;84;21181;-50
2021/03/29 18:31:45;;;;;;;4.47;2.87;;;;;;;10.34;65.83;102734.66;1755651;80;21147;-50